createdAt,value
2023-05-22T00:01:57.152Z,23.00
2023-05-22T00:04:25.512Z,23.00
2023-05-22T00:08:03.859Z,22.80
2023-05-22T00:10:32.961Z,22.90
2023-05-22T00:13:02.603Z,23.00
2023-05-22T00:15:31.534Z,23.10
2023-05-22T00:18:00.398Z,22.90
2023-05-22T00:20:28.740Z,22.70
2023-05-22T00:22:57.332Z,22.60
2023-05-22T00:25:25.900Z,22.50
2023-05-22T00:27:54.436Z,22.40
2023-05-22T00:30:23.490Z,22.50
2023-05-22T00:32:52.135Z,22.70
2023-05-22T00:35:21.865Z,22.90
2023-05-22T00:37:50.754Z,23.10
2023-05-22T00:40:19.583Z,23.00
2023-05-22T00:42:50.631Z,22.80
2023-05-22T00:45:19.355Z,22.60
2023-05-22T00:47:48.094Z,22.50
2023-05-22T00:50:16.900Z,22.50
2023-05-22T00:52:47.277Z,22.40
2023-05-22T00:55:16.550Z,22.40
2023-05-22T00:57:45.578Z,22.40
2023-05-22T01:00:15.796Z,22.40
2023-05-22T01:02:44.497Z,22.40
2023-05-22T01:05:13.552Z,22.30
2023-05-22T01:07:41.625Z,22.30
2023-05-22T01:10:10.607Z,22.30
2023-05-22T01:13:00.592Z,22.30
2023-05-22T01:15:44.288Z,22.20
2023-05-22T01:18:37.415Z,22.20
2023-05-22T01:21:28.224Z,22.20
2023-05-22T01:24:27.567Z,22.20
2023-05-22T01:27:08.282Z,22.20
2023-05-22T01:29:42.823Z,22.10
2023-05-22T01:32:17.326Z,22.30
2023-05-22T01:34:47.877Z,22.60
2023-05-22T01:37:18.264Z,22.80
2023-05-22T01:39:47.561Z,22.90
2023-05-22T01:42:16.579Z,22.70
2023-05-22T01:44:45.066Z,22.60
2023-05-22T01:47:13.395Z,22.40
2023-05-22T01:49:42.793Z,22.40
2023-05-22T01:52:19.477Z,22.40
2023-05-22T01:54:56.058Z,22.30
2023-05-22T01:57:39.573Z,22.30
2023-05-22T02:00:11.578Z,22.30
2023-05-22T02:02:54.303Z,22.50
2023-05-22T02:05:25.559Z,22.80
2023-05-22T02:07:57.303Z,22.90
2023-05-22T02:10:28.898Z,22.80
2023-05-22T02:12:57.999Z,22.70
2023-05-22T02:15:26.666Z,22.50
2023-05-22T02:17:54.659Z,22.40
2023-05-22T02:20:23.260Z,22.30
2023-05-22T02:22:51.931Z,22.30
2023-05-22T02:25:20.359Z,22.30
2023-05-22T02:27:49.221Z,22.20
2023-05-22T02:30:17.295Z,22.20
2023-05-22T02:32:50.098Z,22.20
2023-05-22T02:35:18.873Z,22.20
2023-05-22T02:37:47.025Z,22.20
2023-05-22T02:40:15.767Z,22.40
2023-05-22T02:42:44.531Z,22.60
2023-05-22T02:45:13.880Z,22.80
2023-05-22T02:47:43.161Z,22.90
2023-05-22T02:50:13.440Z,22.80
2023-05-22T02:52:42.164Z,22.60
2023-05-22T02:55:10.696Z,22.50
2023-05-22T02:57:39.317Z,22.40
2023-05-22T03:00:08.301Z,22.30
2023-05-22T03:02:36.881Z,22.30
2023-05-22T03:05:06.625Z,22.30
2023-05-22T03:07:35.565Z,22.20
2023-05-22T03:10:04.469Z,22.20
2023-05-22T03:12:33.215Z,22.40
2023-05-22T03:15:01.775Z,22.60
2023-05-22T03:17:33.711Z,22.70
2023-05-22T03:20:02.367Z,22.90
2023-05-22T03:22:30.790Z,22.80
2023-05-22T03:24:59.352Z,22.60
2023-05-22T03:27:28.069Z,22.40
2023-05-22T03:29:56.266Z,22.50
2023-05-22T03:32:25.433Z,22.70
2023-05-22T03:34:53.486Z,22.90
2023-05-22T03:37:22.072Z,23.00
2023-05-22T03:39:50.488Z,22.90
2023-05-22T03:42:27.059Z,22.70
2023-05-22T03:44:55.726Z,22.50
2023-05-22T03:47:24.738Z,22.40
2023-05-22T03:49:53.177Z,22.40
2023-05-22T03:52:23.681Z,22.70
2023-05-22T03:54:52.503Z,22.90
2023-05-22T03:57:20.864Z,23.00
2023-05-22T03:59:49.263Z,22.90
2023-05-22T04:02:18.190Z,22.60
2023-05-22T04:04:46.390Z,22.50
2023-05-22T04:07:15.120Z,22.50
2023-05-22T04:09:43.608Z,22.60
2023-05-22T04:12:12.093Z,22.80
2023-05-22T04:14:40.564Z,23.00
2023-05-22T04:17:09.033Z,23.00
2023-05-22T04:19:37.509Z,22.80
2023-05-22T04:22:06.590Z,22.60
2023-05-22T04:24:34.930Z,22.50
2023-05-22T04:27:03.317Z,22.60
2023-05-22T04:29:31.606Z,22.80
2023-05-22T04:32:00.229Z,23.00
2023-05-22T04:34:29.352Z,23.10
2023-05-22T04:36:57.754Z,22.90
2023-05-22T04:39:26.373Z,22.70
2023-05-22T04:41:55.136Z,22.50
2023-05-22T04:44:23.496Z,22.50
2023-05-22T04:46:53.377Z,22.60
2023-05-22T04:49:21.799Z,22.80
2023-05-22T04:51:50.299Z,23.00
2023-05-22T04:54:19.598Z,23.10
2023-05-22T04:56:47.994Z,22.80
2023-05-22T04:59:16.520Z,22.60
2023-05-22T05:01:45.975Z,22.50
2023-05-22T05:04:14.608Z,22.50
2023-05-22T05:06:42.940Z,22.70
2023-05-22T05:09:11.687Z,22.90
2023-05-22T05:11:40.839Z,23.00
2023-05-22T05:14:10.156Z,23.10
2023-05-22T05:16:38.652Z,22.90
2023-05-22T05:19:08.176Z,22.70
2023-05-22T05:21:36.490Z,22.50
2023-05-22T05:24:05.092Z,22.40
2023-05-22T05:26:33.294Z,22.60
2023-05-22T05:29:01.743Z,22.80
2023-05-22T05:31:37.831Z,23.00
2023-05-22T05:34:19.076Z,23.10
2023-05-22T05:37:19.998Z,22.80
2023-05-22T05:39:49.784Z,22.70
2023-05-22T05:42:18.386Z,22.40
2023-05-22T05:44:48.646Z,22.50
2023-05-22T05:47:17.810Z,22.70
2023-05-22T05:49:46.223Z,22.90
2023-05-22T05:52:16.692Z,23.10
2023-05-22T05:54:45.212Z,22.90
2023-05-22T05:57:16.508Z,22.70
2023-05-22T05:59:45.030Z,22.50
2023-05-22T06:02:36.609Z,22.50
2023-05-22T06:05:05.425Z,22.70
2023-05-22T06:07:37.130Z,22.90
2023-05-22T06:10:07.856Z,23.10
2023-05-22T06:12:39.891Z,23.00
2023-05-22T06:15:08.220Z,22.80
2023-05-22T06:17:37.539Z,22.60
2023-05-22T06:20:06.953Z,22.50
2023-05-22T06:22:36.742Z,22.60
2023-05-22T06:25:05.185Z,22.80
2023-05-22T06:27:35.362Z,23.00
2023-05-22T06:30:05.053Z,23.10
2023-05-22T06:32:38.891Z,22.90
2023-05-22T06:35:09.275Z,22.70
2023-05-22T06:37:37.922Z,22.60
2023-05-22T06:40:08.166Z,22.50
2023-05-22T06:42:50.540Z,22.70
2023-05-22T06:45:41.948Z,22.90
2023-05-22T06:48:16.757Z,23.10
2023-05-22T06:51:05.374Z,23.00
2023-05-22T06:53:33.847Z,22.80
2023-05-22T06:56:02.144Z,22.60
2023-05-22T06:58:44.729Z,22.50
2023-05-22T07:01:13.622Z,22.60
2023-05-22T07:03:50.038Z,22.80
2023-05-22T07:06:44.945Z,23.10
2023-05-22T07:09:14.661Z,23.00
2023-05-22T07:11:43.709Z,22.80
2023-05-22T07:14:14.352Z,22.70
2023-05-22T07:16:44.769Z,22.50
2023-05-22T07:19:15.860Z,22.40
2023-05-22T07:21:43.979Z,22.50
2023-05-22T07:24:17.328Z,22.70
2023-05-22T07:26:45.900Z,22.90
2023-05-22T07:37:25.735Z,23.60
2023-05-22T07:39:55.144Z,23.70
2023-05-22T07:42:23.773Z,23.60
2023-05-22T07:44:56.918Z,23.30
2023-05-22T07:47:26.961Z,23.00
2023-05-22T07:49:55.653Z,22.70
2023-05-22T07:52:25.054Z,22.50
2023-05-22T07:54:53.943Z,22.50
2023-05-22T07:57:22.479Z,22.70
2023-05-22T07:59:52.211Z,22.90
2023-05-22T08:02:20.590Z,23.10
2023-05-22T08:04:49.295Z,23.10
2023-05-22T08:07:17.882Z,22.90
2023-05-22T08:09:46.329Z,22.60
2023-05-22T08:12:17.768Z,22.50
2023-05-22T08:14:46.232Z,22.50
2023-05-22T08:17:14.824Z,22.70
2023-05-22T08:19:43.481Z,22.90
2023-05-22T08:22:12.113Z,23.10
2023-05-22T08:24:40.333Z,22.90
2023-05-22T08:27:08.813Z,22.60
2023-05-22T08:29:37.208Z,22.50
2023-05-22T08:32:05.968Z,22.50
2023-05-22T08:34:34.817Z,22.60
2023-05-22T08:37:03.801Z,22.80
2023-05-22T08:39:32.285Z,23.00
2023-05-22T08:42:00.886Z,22.90
2023-05-22T08:44:29.216Z,22.80
2023-05-22T08:46:58.902Z,22.50
2023-05-22T08:49:27.464Z,22.40
2023-05-22T08:52:06.455Z,22.50
2023-05-22T08:54:40.209Z,22.70
2023-05-22T08:57:10.795Z,23.00
2023-05-22T08:59:40.349Z,23.10
2023-05-22T09:02:09.678Z,22.90
2023-05-22T09:04:38.020Z,22.70
2023-05-22T09:07:06.343Z,22.60
2023-05-22T09:09:41.519Z,22.50
2023-05-22T09:12:11.339Z,22.50
2023-05-22T09:14:41.178Z,22.40
2023-05-22T09:17:11.271Z,22.40
2023-05-22T09:19:43.477Z,22.30
2023-05-22T09:22:12.723Z,22.40
2023-05-22T09:24:46.054Z,22.60
2023-05-22T09:27:14.533Z,22.80
2023-05-22T09:29:53.964Z,22.90
2023-05-22T09:32:22.599Z,22.70
2023-05-22T09:34:51.667Z,22.60
2023-05-22T09:37:20.502Z,22.50
2023-05-22T09:39:48.741Z,22.50
2023-05-22T09:42:17.609Z,22.50
2023-05-22T09:44:52.292Z,22.50
2023-05-22T09:47:20.752Z,22.50
2023-05-22T09:49:49.305Z,22.50
2023-05-22T09:52:21.141Z,22.50
2023-05-22T09:54:54.597Z,22.50
2023-05-22T09:57:25.924Z,22.50
2023-05-22T09:59:58.586Z,22.50
2023-05-22T10:02:29.161Z,22.50
2023-05-22T10:04:58.476Z,22.60
2023-05-22T10:07:35.758Z,22.50
2023-05-22T10:10:13.291Z,22.50
2023-05-22T10:12:51.258Z,22.40
2023-05-22T10:15:20.823Z,22.40
2023-05-22T10:17:50.613Z,22.40
2023-05-22T10:20:21.317Z,22.40
2023-05-22T10:22:50.277Z,22.40
2023-05-22T10:25:18.705Z,22.30
2023-05-22T10:27:46.952Z,22.30
2023-05-22T10:30:23.334Z,22.30
2023-05-22T10:33:25.339Z,22.20
2023-05-22T10:36:07.694Z,22.20
2023-05-22T10:38:58.378Z,22.30
2023-05-22T10:41:28.190Z,22.20
2023-05-22T10:43:57.895Z,22.20
2023-05-22T10:46:26.789Z,22.20
2023-05-22T10:48:55.754Z,22.20
2023-05-22T10:51:24.790Z,22.20
2023-05-22T10:53:58.567Z,22.20
2023-05-22T10:56:36.729Z,22.20
2023-05-22T10:59:06.769Z,22.20
2023-05-22T11:01:35.770Z,22.20
2023-05-22T11:04:12.043Z,22.10
2023-05-22T11:06:46.041Z,22.20
2023-05-22T11:09:19.602Z,22.10
2023-05-22T11:11:48.754Z,22.10
2023-05-22T11:14:21.566Z,22.40
2023-05-22T11:16:49.918Z,22.60
2023-05-22T11:19:23.765Z,22.80
2023-05-22T11:21:52.342Z,22.90
2023-05-22T11:24:21.012Z,22.70
2023-05-22T11:27:03.366Z,22.60
2023-05-22T11:29:32.848Z,22.40
2023-05-22T11:32:02.262Z,22.40
2023-05-22T11:34:30.657Z,22.30
2023-05-22T11:37:00.463Z,22.30
2023-05-22T11:39:29.078Z,22.30
2023-05-22T11:41:57.590Z,22.50
2023-05-22T11:47:10.900Z,22.90
2023-05-22T11:49:39.386Z,23.00
2023-05-22T11:52:08.253Z,22.80
2023-05-22T11:54:38.609Z,22.70
2023-05-22T11:57:10.522Z,22.60
2023-05-22T11:59:38.877Z,22.50
2023-05-22T12:02:10.664Z,22.50
2023-05-22T12:04:39.140Z,22.50
2023-05-22T12:07:08.524Z,22.40
2023-05-22T12:09:39.149Z,22.40
2023-05-22T12:12:09.852Z,22.40
2023-05-22T12:14:39.023Z,22.40
2023-05-22T12:17:07.022Z,22.40
2023-05-22T12:19:35.610Z,22.30
2023-05-22T12:22:05.999Z,22.30
2023-05-22T12:24:41.984Z,22.30
2023-05-22T12:27:11.343Z,22.30
2023-05-22T12:29:40.479Z,22.20
2023-05-22T12:32:10.675Z,22.20
2023-05-22T12:34:51.270Z,22.20
2023-05-22T12:37:24.636Z,22.20
2023-05-22T12:40:00.370Z,22.20
2023-05-22T12:42:29.523Z,22.30
2023-05-22T12:45:01.603Z,22.20
2023-05-22T12:47:30.062Z,22.20
2023-05-22T12:49:58.419Z,22.20
2023-05-22T12:52:27.091Z,22.20
2023-05-22T12:54:55.428Z,22.20
2023-05-22T12:57:24.103Z,22.20
2023-05-22T12:59:52.504Z,22.20
2023-05-22T13:02:21.131Z,22.20
2023-05-22T13:04:49.660Z,22.20
2023-05-22T13:07:18.335Z,22.20
2023-05-22T13:09:46.922Z,22.20
2023-05-22T13:12:15.443Z,22.20
2023-05-22T13:14:43.966Z,22.20
2023-05-22T13:17:12.402Z,22.20
2023-05-22T13:19:40.862Z,22.30
2023-05-22T13:22:09.245Z,22.20
2023-05-22T13:24:40.921Z,22.20
2023-05-22T13:27:09.736Z,22.20
2023-05-22T13:29:38.158Z,22.20
2023-05-22T13:32:06.966Z,22.20
2023-05-22T13:34:35.070Z,22.20
2023-05-22T13:37:04.204Z,22.20
2023-05-22T13:39:32.210Z,22.30
2023-05-22T13:42:01.159Z,22.50
2023-05-22T13:44:29.634Z,22.80
2023-05-22T13:46:58.224Z,22.90
2023-05-22T13:49:27.204Z,22.80
2023-05-22T13:51:55.605Z,22.60
2023-05-22T13:54:24.448Z,22.50
2023-05-22T13:56:52.616Z,22.50
2023-05-22T13:59:21.226Z,22.50
2023-05-22T14:01:49.526Z,22.50
2023-05-22T14:04:18.059Z,22.50
2023-05-22T14:06:46.803Z,22.40
2023-05-22T14:09:15.422Z,22.40
2023-05-22T14:11:43.878Z,22.40
2023-05-22T14:14:12.440Z,22.40
2023-05-22T14:16:41.144Z,22.30
2023-05-22T14:19:09.392Z,22.40
2023-05-22T14:21:37.846Z,22.40
2023-05-22T14:24:08.005Z,22.40
2023-05-22T14:26:36.644Z,22.40
2023-05-22T14:29:04.952Z,22.40
2023-05-22T14:31:44.295Z,22.30
2023-05-22T14:34:31.287Z,22.40
2023-05-22T14:37:00.294Z,22.40
2023-05-22T14:39:28.866Z,22.40
2023-05-22T14:41:57.356Z,22.40
2023-05-22T14:44:25.778Z,22.40
2023-05-22T14:46:54.292Z,22.40
2023-05-22T14:49:22.829Z,22.30
2023-05-22T14:51:51.262Z,22.30
2023-05-22T14:54:19.780Z,22.40
2023-05-22T14:56:48.496Z,22.40
2023-05-22T14:59:17.307Z,22.40
2023-05-22T15:01:45.696Z,22.40
2023-05-22T15:04:14.361Z,22.40
2023-05-22T15:06:42.747Z,22.40
2023-05-22T15:09:14.054Z,22.50
2023-05-22T15:11:42.528Z,22.60
2023-05-22T15:14:18.334Z,22.60
2023-05-22T15:16:47.124Z,22.60
2023-05-22T15:19:15.570Z,22.70
2023-05-22T15:21:44.158Z,22.70
2023-05-22T15:24:12.545Z,22.70
2023-05-22T15:26:41.168Z,22.80
2023-05-22T15:29:09.714Z,22.80
2023-05-22T15:31:38.642Z,22.70
2023-05-22T15:34:07.235Z,22.70
2023-05-22T15:36:39.030Z,22.70
2023-05-22T15:39:07.678Z,22.70
2023-05-22T15:41:36.314Z,22.70
2023-05-22T15:44:10.850Z,22.70
2023-05-22T15:46:40.931Z,22.70
2023-05-22T15:49:09.556Z,22.70
2023-05-22T15:51:37.758Z,22.70
2023-05-22T15:54:06.781Z,22.70
2023-05-22T15:56:35.603Z,22.70
2023-05-22T15:59:06.364Z,22.80
2023-05-22T16:01:35.663Z,22.70
2023-05-22T16:04:04.358Z,22.70
2023-05-22T16:06:33.345Z,22.60
2023-05-22T16:09:15.752Z,22.70
2023-05-22T16:11:44.652Z,22.70
2023-05-22T16:14:13.597Z,22.70
2023-05-22T16:16:42.253Z,22.70
2023-05-22T16:19:11.287Z,22.70
2023-05-22T16:21:40.322Z,22.70
2023-05-22T16:24:12.008Z,22.70
2023-05-22T16:26:41.508Z,22.60
2023-05-22T16:29:10.530Z,22.60
2023-05-22T16:31:38.713Z,22.60
2023-05-22T16:34:07.793Z,22.60
2023-05-22T16:36:37.135Z,22.60
2023-05-22T16:39:06.547Z,22.60
2023-05-22T16:41:38.271Z,22.60
2023-05-22T16:44:06.951Z,22.60
2023-05-22T16:46:35.230Z,22.60
2023-05-22T16:49:03.733Z,22.70
2023-05-22T16:51:32.324Z,22.70
2023-05-22T16:54:00.738Z,22.70
2023-05-22T16:56:29.284Z,22.60
2023-05-22T16:58:57.824Z,22.70
2023-05-22T17:01:36.265Z,22.70
2023-05-22T17:04:05.008Z,22.70
2023-05-22T17:06:33.577Z,22.70
2023-05-22T17:09:03.046Z,22.70
2023-05-22T17:11:31.622Z,22.70
2023-05-22T17:14:00.312Z,22.80
2023-05-22T17:16:30.344Z,22.90
2023-05-22T17:19:03.283Z,22.90
2023-05-22T17:21:39.236Z,22.90
2023-05-22T17:24:07.932Z,22.80
2023-05-22T17:26:36.184Z,22.80
2023-05-22T17:29:05.180Z,22.80
2023-05-22T17:31:35.324Z,22.80
2023-05-22T17:34:08.725Z,22.80
2023-05-22T17:36:38.164Z,22.80
2023-05-22T17:39:07.246Z,22.80
2023-05-22T17:41:35.917Z,22.80
2023-05-22T17:44:04.509Z,22.70
2023-05-22T17:46:33.538Z,22.80
2023-05-22T17:51:50.825Z,22.80
2023-05-22T17:54:19.495Z,22.80
2023-05-22T17:56:48.170Z,22.70
2023-05-22T17:59:16.379Z,22.80
2023-05-22T18:01:44.935Z,22.80
2023-05-22T18:04:13.449Z,22.80
2023-05-22T18:06:42.888Z,22.70
2023-05-22T18:09:11.539Z,22.70
2023-05-22T18:11:40.135Z,22.70
2023-05-22T18:14:08.929Z,22.70
2023-05-22T18:16:37.726Z,22.60
2023-05-22T18:19:06.062Z,22.60
2023-05-22T18:21:34.589Z,22.60
2023-05-22T18:24:03.215Z,22.60
2023-05-22T18:26:31.729Z,22.50
2023-05-22T18:29:00.252Z,22.50
2023-05-22T18:31:28.974Z,22.50
2023-05-22T18:33:57.823Z,22.50
2023-05-22T18:36:26.336Z,22.40
2023-05-22T18:38:55.015Z,22.40
2023-05-22T18:41:23.354Z,22.40
2023-05-22T18:43:51.951Z,22.40
2023-05-22T18:46:20.270Z,22.50
2023-05-22T18:48:48.702Z,22.40
2023-05-22T18:51:17.330Z,22.40
2023-05-22T18:53:45.959Z,22.40
2023-05-22T18:56:14.391Z,22.40
2023-05-22T18:58:42.788Z,22.40
2023-05-22T19:01:11.525Z,22.40
2023-05-22T19:03:40.520Z,22.30
2023-05-22T19:06:09.316Z,22.30
2023-05-22T19:08:37.605Z,22.40
2023-05-22T19:11:06.181Z,22.70
2023-05-22T19:13:35.033Z,23.00
2023-05-22T19:16:07.338Z,23.00
2023-05-22T19:18:36.053Z,22.90
2023-05-22T19:21:04.378Z,22.70
2023-05-22T19:23:33.098Z,22.60
2023-05-22T19:26:01.156Z,22.60
2023-05-22T19:28:30.004Z,22.60
2023-05-22T19:30:58.644Z,22.50
2023-05-22T19:35:33.834Z,22.60
2023-05-22T19:38:02.253Z,22.90
2023-05-22T19:40:30.687Z,23.10
2023-05-22T19:42:59.257Z,23.20
2023-05-22T19:45:27.991Z,23.00
2023-05-22T19:47:56.436Z,22.90
2023-05-22T19:50:25.125Z,22.80
2023-05-22T19:52:53.445Z,22.70
2023-05-22T19:55:21.967Z,22.60
2023-05-22T19:57:50.777Z,22.60
2023-05-22T20:00:22.746Z,22.60
2023-05-22T20:02:51.458Z,22.80
2023-05-22T20:05:19.518Z,23.00
2023-05-22T20:07:48.005Z,23.10
2023-05-22T20:10:16.717Z,23.00
2023-05-22T20:12:45.322Z,22.80
2023-05-22T20:15:13.704Z,22.50
2023-05-22T20:17:42.750Z,22.60
2023-05-22T20:20:11.722Z,22.70
2023-05-22T20:22:40.393Z,22.90
2023-05-22T20:25:09.304Z,23.10
2023-05-22T20:27:38.013Z,23.10
2023-05-22T20:30:07.251Z,22.80
2023-05-22T20:32:35.829Z,22.50
2023-05-22T20:35:04.272Z,22.60
2023-05-22T20:37:32.876Z,22.90
2023-05-22T20:40:01.623Z,23.10
2023-05-22T20:42:30.337Z,23.10
2023-05-22T20:44:59.038Z,22.90
2023-05-22T20:47:27.315Z,22.70
2023-05-22T20:52:03.145Z,22.50
2023-05-22T20:54:32.028Z,22.90
2023-05-22T20:57:00.531Z,23.00
2023-05-22T21:02:59.474Z,23.10
2023-05-22T21:05:28.089Z,23.30
2023-05-22T21:07:56.391Z,23.30
2023-05-22T21:10:25.098Z,23.00
2023-05-22T21:12:53.545Z,22.70
2023-05-22T21:15:23.688Z,22.50
2023-05-22T21:17:52.723Z,22.70
2023-05-22T21:20:21.410Z,22.90
2023-05-22T21:22:49.931Z,23.10
2023-05-22T21:25:19.255Z,22.90
2023-05-22T21:27:47.786Z,22.70
2023-05-22T21:30:16.772Z,22.50
2023-05-22T21:32:45.446Z,22.40
2023-05-22T21:35:14.062Z,22.50
2023-05-22T21:37:44.251Z,22.80
2023-05-22T21:40:13.210Z,23.00
2023-05-22T21:42:46.703Z,23.00
2023-05-22T21:45:16.011Z,22.80
2023-05-22T21:47:44.412Z,22.50
2023-05-22T21:50:12.998Z,22.50
2023-05-22T21:52:41.497Z,22.70
2023-05-22T21:55:09.798Z,22.90
2023-05-22T21:57:38.081Z,23.10
2023-05-22T22:00:07.054Z,22.90
2023-05-22T22:02:35.286Z,22.70
2023-05-22T22:05:03.889Z,22.60
2023-05-22T22:07:32.159Z,22.50
2023-05-22T22:10:00.552Z,22.50
2023-05-22T22:12:28.854Z,22.80
2023-05-22T22:14:58.364Z,23.00
2023-05-22T22:17:26.659Z,23.20
2023-05-22T22:19:55.059Z,23.00
2023-05-22T22:22:23.643Z,22.90
2023-05-22T22:24:52.258Z,22.70
2023-05-22T22:27:20.541Z,22.60
2023-05-22T22:29:49.203Z,22.50
2023-05-22T22:32:17.838Z,22.50
2023-05-22T22:34:52.510Z,22.50
2023-05-22T22:37:21.478Z,22.50
2023-05-22T22:39:50.032Z,22.50
2023-05-22T22:42:18.480Z,22.50
2023-05-22T22:44:46.825Z,22.60
2023-05-22T22:47:15.384Z,22.80
2023-05-22T22:49:43.772Z,23.10
2023-05-22T22:52:12.168Z,23.10
2023-05-22T22:54:41.966Z,22.80
2023-05-22T22:57:13.092Z,22.70
2023-05-22T22:59:41.213Z,22.60
2023-05-22T23:02:10.166Z,22.60
2023-05-22T23:04:38.842Z,22.50
2023-05-22T23:07:06.960Z,22.50
2023-05-22T23:09:35.369Z,22.50
2023-05-22T23:12:03.942Z,22.50
2023-05-22T23:14:32.676Z,22.70
2023-05-22T23:17:00.904Z,22.90
2023-05-22T23:19:29.295Z,23.10
2023-05-22T23:21:57.936Z,23.00
2023-05-22T23:24:26.251Z,22.80
2023-05-22T23:26:54.712Z,22.80
2023-05-22T23:29:23.086Z,22.70
2023-05-22T23:31:51.433Z,22.70
2023-05-22T23:34:20.401Z,22.70
2023-05-22T23:36:48.805Z,22.60
2023-05-22T23:39:17.255Z,22.50
2023-05-22T23:41:45.615Z,22.50
2023-05-22T23:44:13.991Z,22.50
2023-05-22T23:46:42.407Z,22.50
2023-05-22T23:49:10.866Z,22.40
2023-05-22T23:51:39.365Z,22.30
2023-05-22T23:54:07.695Z,22.30
2023-05-22T23:56:36.096Z,22.40
2023-05-22T23:59:04.662Z,22.40
